Time;durP1;ratioP1;P1;durP2;ratioP2;P2;SDS_P1;SDS_P2;PMS_P1;PMS_P2;Temp;Humidity;BMP_temperature;BMP_pressure;BME280_temperature;BME280_humidity;BME280_pressure;Samples;Min_cycle;Max_cycle;Signal;HPM_P1;HPM_P2
2023/03/16 00:04:36;;;;;;;7.20;1.58;;;2.00;99.90;;;;;;15424531;23;20046;-36
2023/03/16 00:10:39;;;;;;;4.72;1.23;;;2.00;99.90;;;;;;15425697;23;20473;-36
2023/03/16 00:16:41;;;;;;;6.97;1.73;;;1.90;99.90;;;;;;15421135;23;20017;-36
2023/03/16 00:22:44;;;;;;;11.38;1.85;;;1.90;99.90;;;;;;15423355;23;20459;-36
2023/03/16 00:28:46;;;;;;;9.73;2.15;;;1.90;99.90;;;;;;15428527;23;20059;-36
2023/03/16 00:34:48;;;;;;;4.70;1.98;;;1.80;99.90;;;;;;15429496;23;20028;-36
2023/03/16 00:40:50;;;;;;;8.48;2.03;;;1.80;99.90;;;;;;15429612;23;20024;-36
2023/03/16 00:46:52;;;;;;;7.97;1.83;;;1.80;99.90;;;;;;15428440;23;20048;-36
2023/03/16 00:52:53;;;;;;;5.22;1.85;;;1.80;99.90;;;;;;15432804;23;20101;-36
2023/03/16 00:58:56;;;;;;;7.78;2.08;;;1.80;99.90;;;;;;15430061;23;20040;-36
2023/03/16 01:04:58;;;;;;;5.10;1.65;;;1.90;99.90;;;;;;15421065;23;20386;-36
2023/03/16 01:11:09;;;;;;;6.00;1.95;;;1.90;99.90;;;;;;15429195;23;20024;-36
2023/03/16 01:17:12;;;;;;;8.38;2.65;;;2.00;99.90;;;;;;15430589;23;20025;-36
2023/03/16 01:23:15;;;;;;;7.43;1.90;;;2.00;99.90;;;;;;15506132;22;20024;-79
2023/03/16 01:29:17;;;;;;;6.75;1.90;;;1.90;99.90;;;;;;15511246;23;20103;-79
2023/03/16 01:35:20;;;;;;;6.22;2.55;;;1.70;99.90;;;;;;15506315;22;20020;-79
2023/03/16 01:41:22;;;;;;;6.70;2.20;;;1.70;99.90;;;;;;15508521;23;20024;-79
2023/03/16 01:47:24;;;;;;;6.18;2.00;;;1.60;99.90;;;;;;15502633;23;20036;-79
2023/03/16 01:53:26;;;;;;;7.95;1.88;;;1.50;99.90;;;;;;15509230;23;20028;-79
2023/03/16 01:59:34;;;;;;;5.22;1.70;;;1.40;99.90;;;;;;15504926;23;20516;-80
2023/03/16 02:06:05;;;;;;;7.97;2.28;;;1.40;99.90;;;;;;15510669;22;20482;-79
2023/03/16 02:12:16;;;;;;;6.38;2.10;;;1.40;99.90;;;;;;15506833;23;20020;-79
2023/03/16 02:18:21;;;;;;;6.43;2.08;;;1.50;99.90;;;;;;15509155;22;20020;-79
2023/03/16 02:24:23;;;;;;;6.07;2.70;;;1.60;99.90;;;;;;15506074;22;20032;-80
2023/03/16 02:30:26;;;;;;;4.90;1.85;;;1.70;99.90;;;;;;15499438;22;20024;-79
2023/03/16 02:36:29;;;;;;;8.27;1.90;;;1.80;99.90;;;;;;15509346;23;20028;-79
2023/03/16 02:42:31;;;;;;;4.10;1.83;;;1.80;99.90;;;;;;15510032;22;20028;-79
2023/03/16 02:49:01;;;;;;;5.95;2.03;;;1.80;99.90;;;;;;15516226;23;20159;-79
2023/03/16 02:55:07;;;;;;;7.85;2.65;;;1.80;99.90;;;;;;15533664;22;20024;-79
2023/03/16 03:01:11;;;;;;;5.88;2.20;;;1.70;99.90;;;;;;15507022;23;20035;-80
2023/03/16 03:07:14;;;;;;;5.33;2.03;;;1.60;99.90;;;;;;15500096;23;20675;-79
2023/03/16 03:13:16;;;;;;;6.88;2.05;;;1.50;99.90;;;;;;15489795;22;20290;-80
2023/03/16 03:19:18;;;;;;;4.72;1.88;;;1.50;99.90;;;;;;15471244;23;20025;-80
2023/03/16 03:25:21;;;;;;;6.70;2.05;;;1.60;99.90;;;;;;15382635;23;20447;-80
2023/03/16 03:31:23;;;;;;;7.18;1.60;;;1.60;99.90;;;;;;15418144;23;20049;-79
2023/03/16 03:37:25;;;;;;;8.70;2.20;;;1.60;99.90;;;;;;15400169;23;20031;-79
2023/03/16 03:43:27;;;;;;;5.68;1.98;;;1.60;99.90;;;;;;15417959;23;20408;-79
2023/03/16 03:49:29;;;;;;;7.22;1.90;;;1.50;99.90;;;;;;15403114;23;20335;-78
2023/03/16 03:55:31;;;;;;;11.43;2.42;;;1.60;99.90;;;;;;15429802;23;20104;-79
2023/03/16 04:01:42;;;;;;;9.77;2.33;;;1.60;99.90;;;;;;15371136;23;20032;-79
2023/03/16 04:07:44;;;;;;;6.28;1.77;;;1.60;99.90;;;;;;15405722;23;20051;-79
2023/03/16 04:13:47;;;;;;;4.38;1.25;;;1.60;99.90;;;;;;15405662;23;20100;-80
2023/03/16 04:19:49;;;;;;;5.70;1.90;;;1.70;99.90;;;;;;15423372;23;20112;-79
2023/03/16 04:25:51;;;;;;;5.28;1.83;;;1.70;99.90;;;;;;15432537;23;20033;-79
2023/03/16 04:31:53;;;;;;;4.07;1.20;;;1.70;99.90;;;;;;15431096;23;20102;-79
2023/03/16 04:37:55;;;;;;;7.20;1.65;;;1.80;99.90;;;;;;15432740;23;20398;-79
2023/03/16 04:43:57;;;;;;;5.75;1.80;;;1.80;99.90;;;;;;15426712;23;20028;-79
2023/03/16 04:50:01;;;;;;;12.90;1.88;;;1.90;99.90;;;;;;15401510;23;20103;-79
2023/03/16 04:56:03;;;;;;;5.15;1.77;;;1.80;99.90;;;;;;15403105;23;20020;-79
2023/03/16 05:02:05;;;;;;;4.68;2.00;;;1.80;99.90;;;;;;15404023;23;20025;-80
2023/03/16 05:08:07;;;;;;;5.82;1.73;;;1.80;99.90;;;;;;15421936;23;20033;-79
2023/03/16 05:14:09;;;;;;;4.80;1.60;;;1.80;99.90;;;;;;15408800;23;20024;-79
2023/03/16 05:20:13;;;;;;;5.45;2.20;;;1.80;99.90;;;;;;15432639;23;20021;-80
2023/03/16 05:26:27;;;;;;;6.70;2.08;;;1.90;99.90;;;;;;15409082;23;20024;-79
2023/03/16 05:32:32;;;;;;;6.78;2.03;;;1.80;99.90;;;;;;15427538;23;20026;-79
2023/03/16 05:38:35;;;;;;;7.32;2.20;;;1.90;99.90;;;;;;15440211;23;20328;-79
2023/03/16 05:44:37;;;;;;;6.95;2.20;;;1.80;99.90;;;;;;15440919;23;20111;-78
2023/03/16 05:50:40;;;;;;;4.93;2.10;;;1.80;99.90;;;;;;15415877;23;20028;-78
2023/03/16 05:56:42;;;;;;;5.38;2.28;;;1.90;99.90;;;;;;15412772;23;20016;-80
2023/03/16 06:02:47;;;;;;;7.57;2.30;;;1.90;99.90;;;;;;15471665;23;20013;-80
2023/03/16 06:08:49;;;;;;;;;;;2.00;99.90;;;;;;15471096;22;20008;-80
2023/03/16 06:14:50;;;;;;;9.02;2.78;;;2.00;99.90;;;;;;15485580;22;19927;-79
2023/03/16 06:20:52;;;;;;;7.55;2.72;;;2.10;99.90;;;;;;15415306;23;20082;-79
2023/03/16 06:26:54;;;;;;;9.88;2.72;;;2.10;99.90;;;;;;15437841;23;20024;-80
2023/03/16 06:32:58;;;;;;;6.18;2.85;;;2.10;99.90;;;;;;15410427;23;20020;-80
2023/03/16 06:39:01;;;;;;;5.35;2.30;;;2.00;99.90;;;;;;15405384;23;20028;-79
2023/03/16 06:45:03;;;;;;;8.60;2.10;;;2.10;99.90;;;;;;15399218;23;20033;-79
2023/03/16 06:51:06;;;;;;;7.90;3.63;;;2.20;99.90;;;;;;15430127;23;20051;-79
2023/03/16 06:57:08;;;;;;;7.10;2.30;;;2.20;99.90;;;;;;15402795;23;20100;-79
2023/03/16 07:03:10;;;;;;;9.25;2.92;;;2.30;99.90;;;;;;15434056;23;20047;-79
2023/03/16 07:09:12;;;;;;;8.70;2.75;;;2.50;99.90;;;;;;15405411;23;20394;-79
2023/03/16 07:15:14;;;;;;;6.20;2.95;;;2.70;99.90;;;;;;15401501;23;20021;-79
2023/03/16 07:21:16;;;;;;;5.90;2.22;;;2.80;99.90;;;;;;15434455;23;20424;-80
2023/03/16 07:27:17;;;;;;;6.05;2.72;;;2.90;99.90;;;;;;15422930;23;20070;-79
2023/03/16 07:33:19;;;;;;;7.28;2.85;;;3.00;99.90;;;;;;15430905;23;20016;-79
2023/03/16 07:39:22;;;;;;;7.00;2.10;;;3.10;99.90;;;;;;15430705;23;20020;-78
2023/03/16 07:45:24;;;;;;;5.63;2.20;;;3.10;99.90;;;;;;15401921;23;20975;-79
2023/03/16 07:51:27;;;;;;;5.45;2.15;;;3.20;99.90;;;;;;15408597;23;20016;-79
2023/03/16 07:57:30;;;;;;;5.03;2.30;;;3.30;99.90;;;;;;15399362;23;20016;-79
2023/03/16 08:03:34;;;;;;;5.75;2.40;;;3.40;99.90;;;;;;15428946;23;20044;-78
2023/03/16 08:09:36;;;;;;;4.10;2.03;;;3.50;99.90;;;;;;15434812;23;20095;-78
2023/03/16 08:15:38;;;;;;;4.85;1.90;;;3.60;99.90;;;;;;15405412;23;20059;-79
2023/03/16 08:21:41;;;;;;;7.78;2.25;;;3.70;99.90;;;;;;15402170;23;20083;-79
2023/03/16 08:28:01;;;;;;;5.03;2.35;;;3.80;99.90;;;;;;15410170;23;20047;-78
2023/03/16 08:34:03;;;;;;;5.28;1.70;;;4.10;99.90;;;;;;15407386;23;20104;-78
2023/03/16 08:40:09;;;;;;;5.70;2.00;;;4.10;99.90;;;;;;15433667;23;20021;-78
2023/03/16 08:46:12;;;;;;;7.80;2.42;;;4.10;99.90;;;;;;15372558;23;20102;-78
2023/03/16 08:52:21;;;;;;;8.15;2.53;;;4.20;99.90;;;;;;15435718;23;20024;-78
2023/03/16 08:58:23;;;;;;;5.95;2.17;;;4.50;99.90;;;;;;15411979;23;20135;-78
2023/03/16 09:04:27;;;;;;;3.88;1.90;;;4.60;99.90;;;;;;15404538;23;20035;-78
2023/03/16 09:10:31;;;;;;;8.57;2.30;;;4.60;99.90;;;;;;15406451;23;20100;-79
2023/03/16 09:16:33;;;;;;;7.78;1.83;;;4.60;99.90;;;;;;15412427;23;20021;-78
2023/03/16 09:22:39;;;;;;;4.78;2.00;;;4.60;99.90;;;;;;15435833;23;20086;-79
2023/03/16 09:28:42;;;;;;;6.90;1.95;;;4.70;99.90;;;;;;15411331;23;20060;-79
2023/03/16 09:34:44;;;;;;;9.13;2.53;;;5.00;99.90;;;;;;15439407;23;20098;-78
2023/03/16 09:41:06;;;;;;;8.32;2.25;;;5.30;99.90;;;;;;15439712;23;20480;-78
2023/03/16 09:47:10;;;;;;;4.60;1.67;;;5.50;99.90;;;;;;15437382;23;20027;-78
2023/03/16 09:53:17;;;;;;;;;;;5.80;99.90;;;;;;15408427;23;20027;-78
2023/03/16 09:59:21;;;;;;;5.07;2.17;;;6.10;99.90;;;;;;15449502;23;19947;-78
2023/03/16 10:05:24;;;;;;;5.20;1.85;;;6.40;99.90;;;;;;15411384;23;20025;-78
2023/03/16 10:11:39;;;;;;;8.65;2.60;;;6.50;99.90;;;;;;15404067;23;20048;-78
2023/03/16 10:18:01;;;;;;;6.90;2.30;;;6.60;99.90;;;;;;15402423;23;20024;-78
2023/03/16 10:24:04;;;;;;;6.60;2.30;;;6.60;99.90;;;;;;15496033;22;20020;-78
2023/03/16 10:30:27;;;;;;;4.50;2.00;;;6.90;99.90;;;;;;15504850;23;20020;-79
2023/03/16 10:36:33;;;;;;;4.68;2.03;;;7.10;99.90;;;;;;15472014;23;20060;-78
2023/03/16 10:42:36;;;;;;;3.55;1.77;;;7.00;99.90;;;;;;15505697;22;20340;-77
2023/03/16 10:48:39;;;;;;;3.40;1.90;;;7.20;99.90;;;;;;15507159;23;20051;-78
2023/03/16 10:54:51;;;;;;;4.05;1.83;;;7.20;99.90;;;;;;15500882;23;20024;-79
2023/03/16 11:00:54;;;;;;;4.05;2.00;;;7.20;99.90;;;;;;15498761;23;20026;-79
2023/03/16 11:06:57;;;;;;;3.97;1.90;;;7.20;99.90;;;;;;15502306;22;20020;-78
2023/03/16 11:13:16;;;;;;;6.32;1.90;;;7.30;99.90;;;;;;15502782;22;20040;-79
2023/03/16 11:19:47;;;;;;;4.47;1.90;;;7.50;99.90;;;;;;15489280;22;20048;-80
2023/03/16 11:25:53;;;;;;;3.40;1.65;;;7.70;99.90;;;;;;15407517;23;20344;-79
2023/03/16 11:32:06;;;;;;;4.55;1.80;;;7.90;99.90;;;;;;15431682;23;20048;-79
2023/03/16 11:38:14;;;;;;;4.32;1.60;;;8.20;99.90;;;;;;15429456;23;20055;-79
2023/03/16 11:44:50;;;;;;;5.13;2.00;;;8.10;99.90;;;;;;15403277;23;20043;-79
2023/03/16 11:51:16;;;;;;;3.00;1.55;;;8.40;99.90;;;;;;15431438;23;20028;-80
2023/03/16 11:57:36;;;;;;;4.25;1.90;;;8.30;99.90;;;;;;15432439;23;20038;-79
2023/03/16 12:03:57;;;;;;;3.33;1.58;;;8.50;99.90;;;;;;15400812;23;20470;-79
2023/03/16 12:10:22;;;;;;;3.08;1.73;;;8.70;99.90;;;;;;15401436;23;20021;-79
2023/03/16 12:16:48;;;;;;;3.65;1.60;;;8.60;99.90;;;;;;15404567;23;20051;-79
2023/03/16 12:23:05;;;;;;;4.35;1.48;;;8.30;99.90;;;;;;15423410;23;20455;-79
2023/03/16 12:29:19;;;;;;;4.85;1.50;;;8.30;99.90;;;;;;15401759;23;20494;-79
2023/03/16 12:35:46;;;;;;;2.80;1.40;;;8.30;99.90;;;;;;15407530;23;20020;-79
2023/03/16 12:42:19;;;;;;;4.70;1.60;;;8.30;99.90;;;;;;15400234;23;20355;-79
2023/03/16 12:48:37;;;;;;;5.18;1.60;;;8.10;99.90;;;;;;15409365;23;20020;-79
2023/03/16 12:55:12;;;;;;;3.38;1.30;;;8.00;99.90;;;;;;15435394;23;20421;-79
2023/03/16 13:01:17;;;;;;;5.30;1.70;;;8.40;99.90;;;;;;15356037;23;20036;-78
2023/03/16 13:07:23;;;;;;;3.72;1.58;;;8.70;99.90;;;;;;15428229;23;20454;-80
2023/03/16 13:13:29;;;;;;;3.75;1.60;;;8.80;99.90;;;;;;15424071;23;20095;-79
2023/03/16 13:19:36;;;;;;;3.67;1.60;;;8.70;99.90;;;;;;15403318;23;20025;-79
2023/03/16 13:25:43;;;;;;;2.47;1.25;;;8.80;99.90;;;;;;15401947;23;20272;-79
2023/03/16 13:31:47;;;;;;;5.45;1.80;;;8.70;99.90;;;;;;15405688;23;20076;-79
2023/03/16 13:37:49;;;;;;;3.43;1.30;;;8.70;99.90;;;;;;15407541;23;20024;-79
2023/03/16 13:43:51;;;;;;;4.43;1.60;;;8.70;99.90;;;;;;15407104;23;20035;-79
2023/03/16 13:49:58;;;;;;;2.63;1.35;;;8.70;99.90;;;;;;15434544;23;20020;-79
2023/03/16 13:56:03;;;;;;;1.98;1.00;;;8.90;99.90;;;;;;15411801;23;20017;-78
2023/03/16 14:02:17;;;;;;;3.33;1.35;;;9.00;99.90;;;;;;15395175;23;20027;-78
2023/03/16 14:08:22;;;;;;;4.38;1.48;;;9.30;99.90;;;;;;15399035;23;20070;-78
2023/03/16 14:14:30;;;;;;;2.90;1.42;;;9.10;99.90;;;;;;15397826;23;20030;-79
2023/03/16 14:20:32;;;;;;;4.50;1.88;;;9.20;99.90;;;;;;15401467;23;20512;-80
2023/03/16 14:26:45;;;;;;;4.03;1.80;;;8.80;99.90;;;;;;15403724;23;20056;-79
2023/03/16 14:32:59;;;;;;;3.15;1.50;;;8.70;99.90;;;;;;15395929;23;20451;-78
2023/03/16 14:39:18;;;;;;;4.53;1.90;;;8.90;99.90;;;;;;15399477;23;20339;-79
2023/03/16 14:45:21;;;;;;;4.55;2.03;;;9.00;99.90;;;;;;15398489;23;20027;-78
2023/03/16 14:51:23;;;;;;;3.60;1.58;;;8.80;99.90;;;;;;15429410;23;20102;-78
2023/03/16 14:57:26;;;;;;;3.35;1.55;;;8.70;99.90;;;;;;15428600;23;20017;-78
2023/03/16 15:03:34;;;;;;;3.00;1.40;;;8.60;99.90;;;;;;15421422;23;20055;-79
2023/03/16 15:09:42;;;;;;;3.13;1.33;;;8.60;99.90;;;;;;15396968;23;20028;-79
2023/03/16 15:15:47;;;;;;;2.83;1.35;;;8.50;99.90;;;;;;15396500;23;20028;-79
2023/03/16 15:21:49;;;;;;;3.20;1.30;;;8.40;99.90;;;;;;15427968;23;20103;-78
2023/03/16 15:27:52;;;;;;;2.80;1.25;;;8.50;99.90;;;;;;15430387;23;20036;-78
2023/03/16 15:33:54;;;;;;;2.53;1.27;;;8.50;99.90;;;;;;15401779;23;20347;-78
2023/03/16 15:39:56;;;;;;;3.03;1.30;;;8.60;99.90;;;;;;15399318;23;20150;-79
2023/03/16 15:45:58;;;;;;;2.42;1.10;;;8.60;99.90;;;;;;15400115;23;20029;-78
2023/03/16 15:52:06;;;;;;;2.65;1.10;;;8.50;99.90;;;;;;15425464;23;20417;-79
2023/03/16 15:58:19;;;;;;;2.97;0.77;;;8.50;99.90;;;;;;15398505;23;20027;-79
2023/03/16 16:04:23;;;;;;;2.45;1.10;;;8.60;99.90;;;;;;15427258;23;20163;-78
2023/03/16 16:10:27;;;;;;;1.57;0.87;;;8.70;99.90;;;;;;15424711;23;20042;-78
2023/03/16 16:16:31;;;;;;;4.18;1.42;;;8.60;99.90;;;;;;15400484;23;20275;-79
2023/03/16 16:22:35;;;;;;;2.47;1.00;;;8.50;99.90;;;;;;15451850;22;20019;-78
2023/03/16 16:28:37;;;;;;;2.30;1.13;;;8.20;99.90;;;;;;15498587;23;20020;-78
2023/03/16 16:34:39;;;;;;;2.65;0.98;;;8.20;99.90;;;;;;15499250;22;20206;-78
2023/03/16 16:40:44;;;;;;;2.63;1.02;;;8.10;99.90;;;;;;15496643;23;20091;-78
2023/03/16 16:46:49;;;;;;;1.50;0.82;;;8.00;99.90;;;;;;15501600;23;20035;-78
2023/03/16 16:52:52;;;;;;;3.50;1.30;;;7.90;99.90;;;;;;15502486;23;20070;-79
2023/03/16 16:58:55;;;;;;;2.28;0.80;;;7.80;99.90;;;;;;15493342;23;20043;-78
2023/03/16 17:04:57;;;;;;;2.05;0.85;;;7.70;99.90;;;;;;15499228;23;20051;-79
2023/03/16 17:11:15;;;;;;;2.55;1.08;;;7.70;99.90;;;;;;15504380;23;20020;-79
2023/03/16 17:17:17;;;;;;;4.22;1.27;;;7.60;99.90;;;;;;15498451;23;20462;-78
2023/03/16 17:23:31;;;;;;;4.75;1.33;;;7.60;99.90;;;;;;15501491;22;20024;-79
2023/03/16 17:29:35;;;;;;;2.60;1.10;;;7.60;99.90;;;;;;15509534;22;20020;-79
2023/03/16 17:35:37;;;;;;;6.07;1.30;;;7.50;99.90;;;;;;15504886;23;20066;-78
2023/03/16 17:41:39;;;;;;;2.28;1.17;;;7.40;99.90;;;;;;15505748;22;20027;-79
2023/03/16 17:47:41;;;;;;;5.43;1.50;;;7.40;99.90;;;;;;15509411;22;20099;-78
2023/03/16 17:53:44;;;;;;;4.15;1.25;;;7.40;99.90;;;;;;15512524;22;20016;-78
2023/03/16 17:59:46;;;;;;;2.28;1.10;;;7.20;99.90;;;;;;15509107;23;20023;-78
2023/03/16 18:05:48;;;;;;;2.58;1.17;;;7.20;99.90;;;;;;15507468;22;20106;-80
2023/03/16 18:11:50;;;;;;;5.03;1.45;;;7.30;99.90;;;;;;15509588;22;20066;-78
2023/03/16 18:17:52;;;;;;;2.97;1.25;;;7.20;99.90;;;;;;15503856;23;20028;-79
2023/03/16 18:23:55;;;;;;;4.78;1.48;;;7.10;99.90;;;;;;15505515;22;20105;-78
2023/03/16 18:29:56;;;;;;;3.10;1.38;;;7.10;99.90;;;;;;15503869;23;20024;-78
2023/03/16 18:36:02;;;;;;;3.15;1.83;;;7.00;99.90;;;;;;15508425;23;20016;-78
2023/03/16 18:42:09;;;;;;;4.63;1.83;;;6.90;99.90;;;;;;15505780;23;20012;-78
2023/03/16 18:48:31;;;;;;;4.47;1.80;;;7.00;99.90;;;;;;15509031;23;20071;-79
2023/03/16 18:54:37;;;;;;;3.60;1.67;;;7.00;99.90;;;;;;15510040;22;20031;-79
2023/03/16 19:00:39;;;;;;;4.68;2.05;;;6.90;99.90;;;;;;15510333;23;20030;-78
2023/03/16 19:06:40;;;;;;;4.13;1.90;;;7.00;99.90;;;;;;15507724;23;20016;-79
2023/03/16 19:12:43;;;;;;;4.50;2.08;;;7.00;99.90;;;;;;15492793;23;20027;-78
2023/03/16 19:18:45;;;;;;;4.30;1.95;;;7.00;99.90;;;;;;15506080;23;20041;-78
2023/03/16 19:24:53;;;;;;;4.07;2.20;;;6.90;99.90;;;;;;15400516;23;20031;-79
2023/03/16 19:30:56;;;;;;;7.43;2.13;;;7.00;99.90;;;;;;15415867;23;20020;-78
2023/03/16 19:36:57;;;;;;;3.67;2.10;;;7.00;99.90;;;;;;15404079;23;20098;-78
2023/03/16 19:42:59;;;;;;;7.07;2.33;;;6.90;99.90;;;;;;15430353;23;20075;-79
2023/03/16 19:49:03;;;;;;;5.22;2.33;;;6.90;99.90;;;;;;15438240;23;20044;-79
2023/03/16 19:55:05;;;;;;;5.50;2.35;;;6.90;99.90;;;;;;15484589;23;20025;-79
2023/03/16 20:01:22;;;;;;;4.00;2.30;;;6.90;99.90;;;;;;15491400;22;20024;-78
2023/03/16 20:07:24;;;;;;;8.00;2.33;;;6.90;99.90;;;;;;15446702;23;20398;-78
2023/03/16 20:13:30;;;;;;;5.03;2.50;;;6.90;99.90;;;;;;15436232;23;20139;-79
2023/03/16 20:19:32;;;;;;;4.32;2.53;;;6.90;99.90;;;;;;15436424;23;20107;-79
2023/03/16 20:25:34;;;;;;;5.93;2.67;;;6.90;99.90;;;;;;15405989;23;20040;-78
2023/03/16 20:31:36;;;;;;;7.00;2.80;;;6.80;99.90;;;;;;15390990;23;20075;-79
2023/03/16 20:37:38;;;;;;;5.30;2.60;;;6.80;99.90;;;;;;15390915;23;20025;-78
2023/03/16 20:43:41;;;;;;;5.40;2.47;;;6.70;99.90;;;;;;15405509;23;20024;-79
2023/03/16 20:49:43;;;;;;;5.43;2.75;;;6.70;99.90;;;;;;15404641;23;20079;-78
2023/03/16 20:55:46;;;;;;;5.22;2.90;;;6.60;99.90;;;;;;15409730;23;20024;-79
2023/03/16 21:01:50;;;;;;;5.43;2.90;;;6.70;99.90;;;;;;15405496;23;20047;-78
2023/03/16 21:07:53;;;;;;;5.20;2.60;;;6.70;99.90;;;;;;15434808;23;20099;-79
2023/03/16 21:13:55;;;;;;;4.55;2.70;;;6.80;99.90;;;;;;15394258;23;20102;-78
2023/03/16 21:19:58;;;;;;;4.50;2.60;;;6.80;99.90;;;;;;15402462;23;20027;-79
2023/03/16 21:26:02;;;;;;;6.68;2.63;;;6.70;99.90;;;;;;15430813;23;20553;-78
2023/03/16 21:32:09;;;;;;;;;;;6.70;99.90;;;;;;15429300;23;20024;-79
2023/03/16 21:38:13;;;;;;;8.05;2.65;;;6.70;99.90;;;;;;15435460;23;19990;-78
2023/03/16 21:44:16;;;;;;;5.30;3.13;;;6.60;99.90;;;;;;15407460;23;20024;-78
2023/03/16 21:50:22;;;;;;;4.10;2.53;;;6.60;99.90;;;;;;15433667;23;20020;-78
2023/03/16 21:56:25;;;;;;;5.78;3.03;;;6.60;99.90;;;;;;15410191;23;20463;-78
2023/03/16 22:02:28;;;;;;;5.70;2.75;;;6.60;99.90;;;;;;15407629;23;20331;-78
2023/03/16 22:08:33;;;;;;;4.32;2.45;;;6.50;99.90;;;;;;15407783;23;20052;-79
2023/03/16 22:14:34;;;;;;;6.53;2.95;;;6.50;99.90;;;;;;15406437;23;20402;-78
2023/03/16 22:20:36;;;;;;;4.65;2.72;;;6.50;99.90;;;;;;15427855;23;20291;-78
2023/03/16 22:26:38;;;;;;;5.38;2.83;;;6.50;99.90;;;;;;15433565;23;20047;-78
2023/03/16 22:32:41;;;;;;;5.78;2.80;;;6.50;99.90;;;;;;15407325;23;20121;-78
2023/03/16 22:38:44;;;;;;;7.18;3.15;;;6.50;99.90;;;;;;15404351;23;20020;-78
2023/03/16 22:44:46;;;;;;;5.50;2.63;;;6.50;99.90;;;;;;15404040;23;20035;-77
2023/03/16 22:50:49;;;;;;;4.78;2.80;;;6.50;99.90;;;;;;15430618;23;20028;-78
2023/03/16 22:56:52;;;;;;;4.57;2.80;;;6.40;99.90;;;;;;15432418;23;20162;-78
2023/03/16 23:02:56;;;;;;;6.63;2.80;;;6.40;99.90;;;;;;15398561;23;20021;-78
2023/03/16 23:08:58;;;;;;;4.68;3.03;;;6.40;99.90;;;;;;15425716;23;20067;-77
2023/03/16 23:15:00;;;;;;;5.45;2.50;;;6.40;99.90;;;;;;15404160;23;20021;-79
2023/03/16 23:21:02;;;;;;;4.05;2.40;;;6.30;99.90;;;;;;15402248;23;20028;-78
2023/03/16 23:27:16;;;;;;;4.32;2.28;;;6.30;99.90;;;;;;15414065;23;20177;-78
2023/03/16 23:33:20;;;;;;;5.00;2.53;;;6.20;99.90;;;;;;15416873;23;20048;-79
2023/03/16 23:39:22;;;;;;;4.88;2.58;;;6.10;99.90;;;;;;15432381;23;20017;-79
2023/03/16 23:45:36;;;;;;;6.85;2.70;;;6.20;99.90;;;;;;15402703;23;20020;-78
2023/03/16 23:51:39;;;;;;;6.18;2.80;;;6.10;99.90;;;;;;15428415;23;20094;-78
2023/03/16 23:57:40;;;;;;;6.65;2.90;;;6.10;99.90;;;;;;15397987;23;20106;-77
